createdAt,value
2022-11-02T00:00:03.981Z,86.08
2022-11-02T00:01:03.938Z,86.69
2022-11-02T00:02:04.075Z,86.90
2022-11-02T00:03:04.288Z,86.79
2022-11-02T00:04:03.918Z,86.90
2022-11-02T00:05:03.956Z,85.57
2022-11-02T00:06:03.911Z,86.18
2022-11-02T00:07:03.885Z,87.71
2022-11-02T00:08:03.863Z,87.20
2022-11-02T00:09:03.860Z,86.59
2022-11-02T00:10:03.871Z,85.30
2022-11-02T00:11:03.868Z,86.08
2022-11-02T00:12:03.821Z,86.53
2022-11-02T00:13:04.222Z,87.04
2022-11-02T00:14:03.806Z,86.94
2022-11-02T00:15:03.802Z,86.94
2022-11-02T00:16:03.802Z,87.76
2022-11-02T00:17:03.778Z,87.35
2022-11-02T00:18:09.775Z,86.83
2022-11-02T00:19:03.763Z,87.76
2022-11-02T00:20:03.829Z,86.94
2022-11-02T00:21:03.722Z,87.20
2022-11-02T00:22:03.738Z,86.49
2022-11-02T00:23:04.074Z,87.30
2022-11-02T00:24:03.697Z,88.06
2022-11-02T00:25:03.689Z,88.02
2022-11-02T00:26:03.691Z,87.41
2022-11-02T00:27:03.721Z,88.02
2022-11-02T00:28:03.676Z,87.10
2022-11-02T00:29:03.641Z,87.30
2022-11-02T00:30:03.711Z,87.92
2022-11-02T00:31:03.701Z,87.55
2022-11-02T00:32:03.670Z,87.85
2022-11-02T00:33:03.999Z,86.83
2022-11-02T00:34:03.633Z,86.90
2022-11-02T00:35:03.626Z,87.41
2022-11-02T00:36:03.596Z,87.10
2022-11-02T00:37:03.649Z,87.10
2022-11-02T00:38:03.908Z,87.51
2022-11-02T00:39:03.558Z,87.51
2022-11-02T00:40:03.637Z,87.10
2022-11-02T00:41:03.523Z,87.71
2022-11-02T00:42:03.513Z,87.71
2022-11-02T00:43:03.515Z,87.41
2022-11-02T00:44:03.496Z,87.71
2022-11-02T00:45:03.479Z,87.10
2022-11-02T00:46:03.458Z,87.71
2022-11-02T00:47:03.467Z,87.10
2022-11-02T00:48:03.758Z,87.92
2022-11-02T00:49:03.462Z,87.71
2022-11-02T00:50:03.521Z,88.02
2022-11-02T00:51:03.411Z,87.82
2022-11-02T00:52:03.404Z,87.00
2022-11-02T00:53:03.399Z,86.49
2022-11-02T00:54:03.406Z,86.49
2022-11-02T00:55:03.359Z,86.69
2022-11-02T00:56:03.368Z,87.00
2022-11-02T00:57:03.757Z,87.61
2022-11-02T00:58:03.616Z,87.20
2022-11-02T00:59:03.323Z,87.71
2022-11-02T01:00:04.016Z,87.51
2022-11-02T01:01:03.316Z,87.41
2022-11-02T01:02:03.447Z,87.20
2022-11-02T01:03:03.302Z,87.51
2022-11-02T01:04:03.265Z,87.10
2022-11-02T01:05:03.260Z,88.94
2022-11-02T01:06:03.242Z,88.64
2022-11-02T01:07:03.229Z,87.61
2022-11-02T01:08:03.699Z,87.92
2022-11-02T01:09:03.239Z,87.51
2022-11-02T01:10:03.988Z,87.82
2022-11-02T01:11:03.192Z,87.10
2022-11-02T01:12:03.198Z,87.51
2022-11-02T01:13:03.174Z,88.74
2022-11-02T01:14:03.167Z,87.61
2022-11-02T01:15:03.229Z,87.61
2022-11-02T01:16:03.153Z,87.41
2022-11-02T01:17:03.134Z,87.71
2022-11-02T01:18:03.619Z,88.57
2022-11-02T01:19:03.117Z,87.92
2022-11-02T01:20:03.108Z,88.23
2022-11-02T01:21:03.150Z,88.02
2022-11-02T01:22:03.084Z,88.26
2022-11-02T01:23:03.064Z,87.76
2022-11-02T01:24:03.068Z,87.76
2022-11-02T01:25:03.039Z,86.63
2022-11-02T01:26:03.044Z,87.24
2022-11-02T01:27:03.042Z,87.24
2022-11-02T01:28:03.211Z,87.85
2022-11-02T01:29:03.071Z,87.85
2022-11-02T01:30:02.994Z,86.94
2022-11-02T01:31:02.992Z,87.85
2022-11-02T01:32:02.982Z,89.39
2022-11-02T01:33:02.961Z,89.50
2022-11-02T01:34:02.961Z,89.29
2022-11-02T01:35:02.992Z,89.09
2022-11-02T01:36:02.933Z,89.09
2022-11-02T01:37:02.934Z,87.10
2022-11-02T01:38:03.292Z,86.83
2022-11-02T01:39:02.891Z,88.37
2022-11-02T01:40:02.882Z,88.88
2022-11-02T01:41:02.873Z,88.98
2022-11-02T01:42:02.894Z,87.14
2022-11-02T01:43:02.867Z,87.76
2022-11-02T01:44:02.858Z,88.47
2022-11-02T01:45:02.831Z,87.85
2022-11-02T01:46:02.823Z,87.85
2022-11-02T01:47:02.817Z,88.06
2022-11-02T01:48:03.186Z,88.37
2022-11-02T01:49:02.831Z,88.26
2022-11-02T01:50:02.800Z,87.96
2022-11-02T01:51:02.767Z,88.98
2022-11-02T01:52:02.762Z,87.96
2022-11-02T01:53:02.749Z,89.18
2022-11-02T01:54:02.760Z,87.96
2022-11-02T01:55:02.752Z,89.09
2022-11-02T01:56:02.721Z,88.57
2022-11-02T01:57:02.709Z,89.29
2022-11-02T01:58:03.288Z,87.85
2022-11-02T01:59:02.701Z,87.65
2022-11-02T02:00:02.691Z,87.96
2022-11-02T02:01:02.672Z,89.29
2022-11-02T02:02:02.758Z,89.18
2022-11-02T02:03:02.641Z,89.50
2022-11-02T02:04:02.652Z,89.50
2022-11-02T02:05:02.614Z,89.29
2022-11-02T02:06:02.637Z,88.88
2022-11-02T02:07:02.598Z,88.47
2022-11-02T02:08:02.990Z,87.96
2022-11-02T02:09:02.582Z,88.78
2022-11-02T02:10:02.801Z,88.37
2022-11-02T06:01:16.498Z,93.00
2022-11-02T06:02:17.401Z,93.20
2022-11-02T06:03:23.423Z,92.69
2022-11-02T06:04:17.616Z,92.59
2022-11-02T06:05:17.409Z,92.38
2022-11-02T06:06:17.377Z,92.90
2022-11-02T06:07:17.382Z,93.62
2022-11-02T06:08:17.342Z,92.90
2022-11-02T06:09:17.316Z,93.10
2022-11-02T06:10:17.310Z,92.28
2022-11-02T06:11:17.316Z,92.08
2022-11-02T06:12:17.330Z,93.30
2022-11-02T06:13:17.279Z,92.59
2022-11-02T06:14:17.292Z,92.59
2022-11-02T06:15:17.255Z,92.59
2022-11-02T06:17:27.590Z,92.28
2022-11-02T06:18:28.536Z,92.08
2022-11-02T06:19:28.530Z,92.38
2022-11-02T06:20:28.520Z,92.38
2022-11-02T06:21:28.532Z,92.59
2022-11-02T06:22:28.495Z,92.79
2022-11-02T06:23:28.500Z,91.87
2022-11-02T06:24:28.486Z,92.08
2022-11-02T06:25:28.494Z,91.97
2022-11-02T06:26:28.456Z,92.28
2022-11-02T06:27:28.456Z,91.97
2022-11-02T06:28:28.435Z,92.38
2022-11-02T06:29:28.436Z,93.92
2022-11-02T06:30:28.426Z,92.79
2022-11-02T06:31:28.433Z,92.59
2022-11-02T06:32:28.393Z,92.90
2022-11-02T06:33:28.402Z,92.69
2022-11-02T06:34:28.386Z,92.69
2022-11-02T06:35:28.385Z,92.79
2022-11-02T06:36:28.363Z,92.79
2022-11-02T06:37:28.345Z,92.59
2022-11-02T06:38:28.330Z,92.49
2022-11-02T06:39:28.339Z,92.18
2022-11-02T06:40:28.314Z,92.69
2022-11-02T06:41:28.339Z,93.51
2022-11-02T06:42:28.283Z,92.79
2022-11-02T06:43:28.280Z,92.28
2022-11-02T06:44:28.264Z,92.59
2022-11-02T06:45:28.259Z,93.10
2022-11-02T06:46:28.244Z,93.62
2022-11-02T06:47:28.252Z,93.00
2022-11-02T06:48:34.321Z,93.41
2022-11-02T06:49:28.226Z,93.51
2022-11-02T06:50:28.198Z,93.00
2022-11-02T06:51:28.218Z,92.18
2022-11-02T06:52:28.189Z,92.18
2022-11-02T06:53:28.247Z,92.18
2022-11-02T06:54:28.161Z,92.69
2022-11-02T06:55:28.150Z,92.49
2022-11-02T06:56:28.142Z,93.00
2022-11-02T06:57:28.131Z,92.38
2022-11-02T06:58:28.126Z,94.43
2022-11-02T06:59:28.133Z,93.30
2022-11-02T07:00:28.400Z,94.02
2022-11-02T07:01:28.380Z,94.54
2022-11-02T07:02:28.130Z,94.43
2022-11-02T07:03:28.066Z,94.74
2022-11-02T07:04:28.052Z,93.51
2022-11-02T07:05:28.046Z,94.64
2022-11-02T07:06:28.077Z,94.43
2022-11-02T07:07:28.042Z,93.51
2022-11-02T07:08:28.006Z,94.74
2022-11-02T07:09:28.010Z,94.02
2022-11-02T07:10:28.082Z,93.00
2022-11-02T07:11:27.980Z,93.20
2022-11-02T07:12:27.974Z,93.62
2022-11-02T07:13:27.979Z,93.30
2022-11-02T07:14:27.946Z,92.90
2022-11-02T07:15:27.938Z,93.82
2022-11-02T07:16:27.946Z,93.62
2022-11-02T07:17:31.995Z,94.70
2022-11-02T07:18:27.915Z,93.06
2022-11-02T07:19:27.891Z,93.37
2022-11-02T07:20:27.878Z,93.98
2022-11-02T07:21:27.882Z,94.29
2022-11-02T07:22:27.886Z,93.30
2022-11-02T07:23:27.853Z,93.16
2022-11-02T07:24:27.833Z,94.70
2022-11-02T07:25:27.837Z,92.24
2022-11-02T07:26:27.834Z,93.26
2022-11-02T07:27:27.810Z,93.20
2022-11-02T07:28:27.808Z,93.62
2022-11-02T07:29:27.792Z,95.21
2022-11-02T07:30:27.805Z,93.30
2022-11-02T07:31:27.781Z,93.37
2022-11-02T07:32:27.755Z,94.49
2022-11-02T07:33:27.754Z,92.44
2022-11-02T07:34:27.753Z,92.96
2022-11-02T07:35:27.748Z,92.96
2022-11-02T07:36:27.714Z,92.85
2022-11-02T07:37:27.714Z,93.06
2022-11-02T07:38:27.685Z,92.96
2022-11-02T07:39:27.684Z,93.67
2022-11-02T07:40:27.806Z,92.18
2022-11-02T07:41:27.664Z,92.69
2022-11-02T07:42:27.658Z,92.79
2022-11-02T07:43:27.638Z,93.20
2022-11-02T07:44:27.695Z,92.65
2022-11-02T07:45:27.619Z,93.06
2022-11-02T07:46:27.617Z,92.03
2022-11-02T07:47:27.595Z,92.75
2022-11-02T07:48:27.608Z,92.55
2022-11-02T07:49:27.584Z,93.26
2022-11-02T07:50:27.663Z,93.47
2022-11-02T07:51:27.550Z,92.96
2022-11-02T07:52:27.587Z,92.34
2022-11-02T07:53:27.540Z,91.93
2022-11-02T07:54:27.569Z,92.65
2022-11-02T07:55:27.524Z,92.44
2022-11-02T07:56:27.508Z,92.55
2022-11-02T07:57:27.500Z,93.06
2022-11-02T07:58:27.483Z,92.24
2022-11-02T07:59:27.486Z,92.55
2022-11-02T08:00:27.485Z,92.34
2022-11-02T08:01:27.493Z,92.03
2022-11-02T08:02:27.519Z,92.03
2022-11-02T08:03:27.537Z,91.69
2022-11-02T08:04:27.418Z,91.48
2022-11-02T08:05:27.416Z,91.17
2022-11-02T08:06:27.416Z,91.58
2022-11-02T08:07:27.399Z,91.27
2022-11-02T08:08:27.391Z,91.48
2022-11-02T08:09:27.380Z,92.30
2022-11-02T08:10:27.355Z,91.48
2022-11-02T08:11:27.341Z,91.17
2022-11-02T08:12:27.384Z,90.66
2022-11-02T08:13:27.320Z,89.94
2022-11-02T08:14:27.326Z,90.86
2022-11-02T08:15:27.308Z,90.77
2022-11-02T08:16:27.288Z,90.25
2022-11-02T08:17:27.294Z,90.66
2022-11-02T08:18:27.280Z,91.17
2022-11-02T08:19:27.259Z,91.58
2022-11-02T08:20:27.258Z,91.17
2022-11-02T08:21:27.272Z,90.66
2022-11-02T08:22:27.227Z,90.25
2022-11-02T08:23:27.487Z,90.45
2022-11-02T08:24:27.373Z,91.33
2022-11-02T08:25:27.202Z,91.44
2022-11-02T08:26:27.185Z,91.54
2022-11-02T08:27:27.180Z,90.72
2022-11-02T08:28:27.178Z,90.72
2022-11-02T08:29:27.155Z,90.92
2022-11-02T08:30:27.160Z,90.47
2022-11-02T08:31:27.140Z,89.86
2022-11-02T08:32:27.124Z,89.76
2022-11-02T08:33:27.109Z,89.56
2022-11-02T08:34:27.096Z,90.68
2022-11-02T08:35:27.120Z,90.06
2022-11-02T08:36:27.083Z,89.97
2022-11-02T08:37:27.075Z,90.74
2022-11-02T08:38:27.058Z,89.92
2022-11-02T08:39:27.047Z,89.61
2022-11-02T08:40:27.043Z,89.31
2022-11-02T08:41:27.038Z,89.31
2022-11-02T08:42:27.022Z,88.70
2022-11-02T08:43:27.000Z,89.26
2022-11-02T08:44:26.991Z,89.26
2022-11-02T08:45:26.988Z,87.73
2022-11-02T08:46:26.975Z,89.17
2022-11-02T08:47:26.991Z,88.85
2022-11-02T08:48:26.952Z,88.96
2022-11-02T08:49:26.936Z,88.85
2022-11-02T08:50:26.928Z,87.63
2022-11-02T08:51:26.916Z,88.76
2022-11-02T08:52:26.906Z,88.31
2022-11-02T08:53:26.914Z,87.90
2022-11-02T08:54:26.891Z,87.70
2022-11-02T08:55:26.876Z,88.71
2022-11-02T08:56:26.866Z,88.31
2022-11-02T08:57:26.856Z,88.00
2022-11-02T08:58:26.840Z,88.71
2022-11-02T08:59:26.879Z,88.61
2022-11-02T09:00:26.834Z,88.31
2022-11-02T09:01:26.904Z,88.10
2022-11-02T09:02:26.894Z,87.85
2022-11-02T09:03:27.688Z,87.35
2022-11-02T09:04:26.781Z,87.35
2022-11-02T09:05:26.792Z,86.53
2022-11-02T09:06:26.764Z,87.14
2022-11-02T09:07:26.766Z,86.43
2022-11-02T09:08:26.763Z,87.04
2022-11-02T09:09:26.746Z,88.26
2022-11-02T09:10:26.738Z,87.14
2022-11-02T09:11:26.709Z,86.43
2022-11-02T09:12:26.719Z,87.24
2022-11-02T09:13:26.752Z,86.90
2022-11-02T09:14:26.759Z,87.30
2022-11-02T09:15:26.664Z,85.98
2022-11-02T09:16:26.652Z,86.18
2022-11-02T09:17:26.644Z,86.18
2022-11-02T09:18:26.644Z,86.18
2022-11-02T09:19:26.614Z,85.43
2022-11-02T09:20:26.652Z,85.74
2022-11-02T09:21:26.597Z,86.55
2022-11-02T09:22:26.601Z,84.92
2022-11-02T09:23:26.572Z,85.63
2022-11-02T09:24:26.586Z,84.72
2022-11-02T09:25:26.560Z,84.92
2022-11-02T09:26:26.601Z,85.84
2022-11-02T09:27:26.534Z,84.31
2022-11-02T09:28:26.538Z,83.59
2022-11-02T09:29:26.528Z,83.90
2022-11-02T09:30:26.496Z,84.31
2022-11-02T09:31:26.487Z,83.76
2022-11-02T09:32:26.486Z,84.78
2022-11-02T09:33:26.469Z,83.25
2022-11-02T09:34:26.457Z,83.65
2022-11-02T09:35:26.465Z,84.88
2022-11-02T09:36:26.437Z,82.94
2022-11-02T09:37:26.433Z,84.88
2022-11-02T09:38:26.423Z,82.74
2022-11-02T09:39:26.401Z,83.86
2022-11-02T09:40:26.393Z,82.33
2022-11-02T09:41:26.419Z,82.94
2022-11-02T09:42:26.373Z,82.84
2022-11-02T09:43:31.916Z,82.43
2022-11-02T09:44:26.362Z,81.99
2022-11-02T09:45:26.340Z,79.75
2022-11-02T09:46:26.333Z,80.26
2022-11-02T09:48:14.853Z,81.07
2022-11-02T09:48:28.576Z,81.38
2022-11-02T09:49:26.293Z,81.99
2022-11-02T09:51:26.286Z,80.02
2022-11-02T09:52:26.427Z,78.59
2022-11-02T09:53:26.263Z,79.10
2022-11-02T09:54:26.260Z,78.49
2022-11-02T09:55:26.251Z,77.67
2022-11-02T09:56:26.224Z,78.89
2022-11-02T09:57:26.224Z,78.55
2022-11-02T09:58:26.215Z,77.84
2022-11-02T09:59:26.193Z,78.45
2022-11-02T10:00:26.184Z,77.74
2022-11-02T10:01:26.199Z,77.74
2022-11-02T10:02:26.189Z,77.64
2022-11-02T10:03:26.255Z,77.44
2022-11-02T10:04:26.170Z,78.05
2022-11-02T10:05:26.141Z,77.03
2022-11-02T10:06:26.113Z,77.23
2022-11-02T10:07:26.099Z,77.03
2022-11-02T10:08:26.097Z,76.38
2022-11-02T10:09:26.079Z,77.50
2022-11-02T10:10:26.121Z,76.68
2022-11-02T10:11:26.106Z,76.48
2022-11-02T10:12:26.052Z,75.57
2022-11-02T10:13:26.040Z,75.06
2022-11-02T10:14:26.037Z,74.35
2022-11-02T10:15:26.015Z,76.99
2022-11-02T10:16:26.024Z,75.67
2022-11-02T10:17:25.994Z,76.38
2022-11-02T10:18:25.992Z,75.26
2022-11-02T10:19:27.753Z,76.38
2022-11-02T10:20:25.976Z,75.94
2022-11-02T10:21:25.973Z,74.21
2022-11-02T10:22:25.974Z,74.62
2022-11-02T10:23:25.949Z,76.14
2022-11-02T10:24:25.923Z,75.33
2022-11-02T10:25:25.914Z,74.21
2022-11-02T10:26:25.900Z,75.02
2022-11-02T10:27:25.888Z,75.94
2022-11-02T10:28:25.998Z,74.52
2022-11-02T10:29:25.868Z,75.33
2022-11-02T10:30:25.868Z,74.62
2022-11-02T10:31:25.841Z,71.67
2022-11-02T10:32:25.860Z,73.09
2022-11-02T10:33:25.832Z,70.86
2022-11-02T10:34:25.831Z,71.77
2022-11-02T10:35:37.243Z,71.47
2022-11-02T10:36:25.803Z,71.67
2022-11-02T10:37:25.780Z,71.36
2022-11-02T10:38:25.789Z,73.50
2022-11-02T10:39:25.769Z,73.43
2022-11-02T10:40:25.749Z,72.11
2022-11-02T10:41:25.736Z,72.31
2022-11-02T10:42:25.729Z,71.70
2022-11-02T10:43:25.714Z,71.36
2022-11-02T10:44:25.708Z,71.67
2022-11-02T10:45:25.705Z,70.25
2022-11-02T10:46:25.700Z,70.35
2022-11-02T10:47:25.683Z,70.45
2022-11-02T10:48:25.659Z,70.35
2022-11-02T10:49:25.648Z,71.47
2022-11-02T10:50:25.702Z,71.16
2022-11-02T10:51:25.631Z,70.96
2022-11-02T10:52:25.692Z,70.14
2022-11-02T10:53:40.594Z,70.35
2022-11-02T10:54:30.945Z,70.86
2022-11-02T10:55:25.597Z,70.55
2022-11-02T10:56:25.597Z,71.57
2022-11-02T10:57:25.584Z,71.26
2022-11-02T10:58:25.554Z,70.86
2022-11-02T10:59:25.557Z,70.75
2022-11-02T11:00:25.668Z,70.86
2022-11-02T11:01:25.674Z,71.36
2022-11-02T11:02:25.531Z,71.97
2022-11-02T11:03:25.502Z,69.60
2022-11-02T11:04:25.490Z,68.59
2022-11-02T11:05:25.482Z,67.97
2022-11-02T11:06:25.511Z,68.59
2022-11-02T11:07:25.462Z,68.38
2022-11-02T11:08:25.451Z,67.97
2022-11-02T11:09:25.440Z,69.70
2022-11-02T11:10:25.431Z,68.38
2022-11-02T11:11:25.421Z,69.91
2022-11-02T11:12:25.457Z,69.50
2022-11-02T11:16:26.528Z,69.91
2022-11-02T11:19:41.434Z,69.70
2022-11-02T11:20:25.348Z,69.91
2022-11-02T11:21:25.312Z,69.81
2022-11-02T11:22:25.304Z,71.43
2022-11-02T11:23:25.291Z,70.92
2022-11-02T11:24:25.349Z,69.30
2022-11-02T11:25:27.978Z,68.59
2022-11-02T11:26:25.281Z,69.78
2022-11-02T11:27:25.246Z,69.47
2022-11-02T11:28:25.240Z,69.78
2022-11-02T11:29:25.230Z,68.66
2022-11-02T11:30:46.222Z,69.37
2022-11-02T11:31:25.213Z,67.24
2022-11-02T11:32:29.884Z,67.74
2022-11-02T11:33:25.188Z,68.66
2022-11-02T11:34:25.178Z,68.12
2022-11-02T11:35:25.168Z,67.50
2022-11-02T11:37:25.137Z,68.01
2022-11-02T11:38:25.138Z,67.10
2022-11-02T11:39:25.151Z,66.16
2022-11-02T11:40:25.107Z,67.38
2022-11-02T11:41:25.096Z,66.16
2022-11-02T11:42:25.101Z,66.97
2022-11-02T11:43:25.111Z,65.34
2022-11-02T11:44:25.080Z,65.55
2022-11-02T11:45:25.058Z,65.04
2022-11-02T11:46:25.073Z,64.43
2022-11-02T11:47:25.057Z,66.33
2022-11-02T11:48:25.030Z,64.81
2022-11-02T11:49:41.553Z,64.30
2022-11-02T11:50:28.606Z,63.49
2022-11-02T11:51:25.999Z,65.31
2022-11-02T11:52:30.939Z,64.40
2022-11-02T11:53:24.973Z,64.91
2022-11-02T11:54:24.963Z,64.50
2022-11-02T11:55:24.955Z,64.27
2022-11-02T11:56:24.942Z,64.47
2022-11-02T11:57:25.080Z,62.85
2022-11-02T11:58:24.949Z,63.66
2022-11-02T11:59:24.901Z,64.07
2022-11-02T12:00:24.912Z,64.44
2022-11-02T12:01:24.963Z,61.51
2022-11-02T12:02:25.014Z,62.62
2022-11-02T12:03:24.952Z,62.92
2022-11-02T12:04:24.850Z,60.69
2022-11-02T12:05:24.837Z,62.52
2022-11-02T12:06:24.903Z,61.37
2022-11-02T12:07:24.819Z,61.07
2022-11-02T12:08:24.803Z,60.46
2022-11-02T12:09:24.817Z,60.66
2022-11-02T12:10:24.783Z,60.77
2022-11-02T12:11:24.780Z,61.17
2022-11-02T12:12:24.775Z,60.28
2022-11-02T12:13:24.775Z,61.20
2022-11-02T12:14:24.758Z,61.30
2022-11-02T12:15:24.741Z,60.08
2022-11-02T12:16:24.729Z,60.69
2022-11-02T12:17:30.794Z,61.51
2022-11-02T12:18:24.702Z,62.41
2022-11-02T12:19:27.307Z,61.91
2022-11-02T12:20:24.681Z,60.89
2022-11-02T12:21:24.673Z,60.28
2022-11-02T12:22:24.669Z,60.49
2022-11-02T12:23:24.677Z,61.51
2022-11-02T12:24:24.642Z,59.99
2022-11-02T12:25:24.628Z,61.68
2022-11-02T12:26:24.618Z,61.78
2022-11-02T12:27:24.604Z,60.36
2022-11-02T12:28:24.600Z,60.63
2022-11-02T12:29:24.614Z,60.03
2022-11-02T12:30:24.589Z,59.72
2022-11-02T12:31:24.563Z,59.49
2022-11-02T12:32:24.550Z,58.78
2022-11-02T12:33:24.547Z,57.78
2022-11-02T12:34:24.544Z,56.86
2022-11-02T12:35:29.485Z,59.29
2022-11-02T12:36:24.510Z,57.04
2022-11-02T12:37:39.035Z,57.14
2022-11-02T12:38:24.495Z,58.25
2022-11-02T12:39:24.487Z,57.14
2022-11-02T12:41:24.481Z,57.44
2022-11-02T12:42:24.442Z,57.95
2022-11-02T12:43:24.443Z,58.25
2022-11-02T12:44:24.424Z,60.58
2022-11-02T12:45:24.422Z,58.36
2022-11-02T12:46:24.401Z,58.36
2022-11-02T12:47:24.423Z,58.48
2022-11-02T12:48:24.380Z,58.38
2022-11-02T12:49:24.384Z,58.78
2022-11-02T12:50:24.359Z,57.90
2022-11-02T12:51:24.361Z,60.94
2022-11-02T12:52:24.349Z,58.00
2022-11-02T12:53:24.365Z,57.29
2022-11-02T12:54:24.315Z,59.42
2022-11-02T12:55:24.312Z,59.72
2022-11-02T12:56:24.296Z,60.84
2022-11-02T12:57:24.284Z,58.51
2022-11-02T12:58:24.282Z,61.35
2022-11-02T12:59:24.289Z,59.01
2022-11-02T13:00:24.251Z,57.80
2022-11-02T13:01:24.411Z,58.81
2022-11-02T13:02:24.238Z,59.22
2022-11-02T13:03:24.261Z,59.32
2022-11-02T13:04:27.897Z,60.23
2022-11-02T13:05:24.206Z,59.19
2022-11-02T13:06:24.189Z,58.99
2022-11-02T13:07:24.182Z,57.37
2022-11-02T13:08:24.166Z,57.98
2022-11-02T13:09:24.170Z,58.18
2022-11-02T13:10:24.159Z,57.57
2022-11-02T13:11:24.149Z,59.16
2022-11-02T13:12:24.144Z,58.15
2022-11-02T13:13:24.127Z,56.53
2022-11-02T13:14:24.123Z,57.54
2022-11-02T13:15:24.103Z,59.34
2022-11-02T13:16:24.085Z,55.80
2022-11-02T13:17:24.075Z,56.91
2022-11-02T13:18:24.057Z,58.43
2022-11-02T13:19:24.055Z,56.81
2022-11-02T13:20:24.055Z,55.90
2022-11-02T13:21:24.039Z,55.60
2022-11-02T13:22:24.024Z,56.40
2022-11-02T13:23:24.114Z,57.18
2022-11-02T13:24:27.860Z,56.07
2022-11-02T13:25:24.008Z,56.78
2022-11-02T13:26:23.974Z,54.96
2022-11-02T13:27:35.901Z,55.77
2022-11-02T13:28:23.966Z,56.88
2022-11-02T13:29:23.961Z,56.07
2022-11-02T13:30:23.945Z,56.88
2022-11-02T13:31:23.925Z,57.18
2022-11-02T13:32:23.930Z,55.47
2022-11-02T13:33:23.908Z,55.14
2022-11-02T13:34:23.898Z,54.23
2022-11-02T13:35:23.880Z,55.65
2022-11-02T13:36:23.882Z,54.74
2022-11-02T13:37:23.861Z,54.33
2022-11-02T13:38:23.856Z,57.46
2022-11-02T13:39:23.850Z,56.05
2022-11-02T13:40:23.836Z,56.45
2022-11-02T13:41:23.847Z,55.34
2022-11-02T13:42:23.813Z,55.24
2022-11-02T13:43:23.790Z,55.04
2022-11-02T13:44:23.807Z,54.63
2022-11-02T13:45:23.825Z,57.36
2022-11-02T13:46:23.769Z,54.13
2022-11-02T13:47:23.759Z,57.03
2022-11-02T13:48:23.752Z,56.32
2022-11-02T13:49:23.735Z,54.91
2022-11-02T13:50:23.754Z,53.60
2022-11-02T13:51:23.716Z,54.00
2022-11-02T13:52:23.694Z,53.90
2022-11-02T13:53:23.686Z,53.50
2022-11-02T13:54:23.666Z,54.81
2022-11-02T13:55:23.735Z,54.71
2022-11-02T13:56:23.692Z,55.32
2022-11-02T13:57:23.652Z,55.01
2022-11-02T13:58:23.634Z,53.09
2022-11-02T13:59:23.640Z,53.70
2022-11-02T14:00:23.682Z,52.79
2022-11-02T14:01:23.711Z,54.31
2022-11-02T14:02:23.723Z,53.00
2022-11-02T14:03:23.584Z,53.60
2022-11-02T14:04:23.571Z,54.71
2022-11-02T14:05:23.561Z,54.00
2022-11-02T14:06:23.544Z,53.40
2022-11-02T14:07:23.599Z,52.39
2022-11-02T14:08:23.524Z,55.72
2022-11-02T14:09:23.524Z,52.39
2022-11-02T14:10:23.497Z,53.90
2022-11-02T14:11:23.505Z,54.13
2022-11-02T14:12:23.516Z,55.85
2022-11-02T14:13:23.476Z,55.04
2022-11-02T14:14:23.468Z,57.67
2022-11-02T14:15:23.449Z,56.65
2022-11-02T14:16:23.503Z,56.45
2022-11-02T14:17:23.446Z,53.63
2022-11-02T14:18:23.427Z,55.54
2022-11-02T14:19:23.419Z,52.01
2022-11-02T14:20:23.398Z,54.63
2022-11-02T14:21:23.385Z,54.03
2022-11-02T14:22:23.381Z,52.72
2022-11-02T14:23:23.389Z,54.94
2022-11-02T14:24:23.353Z,53.32
2022-11-02T14:25:23.344Z,54.83
2022-11-02T14:26:23.344Z,56.56
2022-11-02T14:27:23.323Z,53.12
2022-11-02T14:28:23.313Z,53.05
2022-11-02T14:29:23.332Z,53.72
2022-11-02T14:30:23.306Z,53.85
2022-11-02T14:31:23.295Z,53.55
2022-11-02T14:32:23.277Z,53.65
2022-11-02T14:33:23.265Z,53.45
2022-11-02T14:34:23.245Z,54.56
2022-11-02T14:35:23.256Z,54.25
2022-11-02T14:36:23.218Z,54.63
2022-11-02T14:37:23.228Z,53.83
2022-11-02T14:38:23.216Z,54.66
2022-11-02T14:39:23.193Z,54.76
2022-11-02T14:40:23.193Z,54.16
2022-11-02T14:41:23.173Z,52.44
2022-11-02T14:42:23.159Z,53.85
2022-11-02T14:43:23.179Z,54.86
2022-11-02T14:44:23.162Z,53.25
2022-11-02T14:45:23.130Z,55.27
2022-11-02T14:46:23.134Z,51.93
2022-11-02T14:47:23.108Z,53.75
2022-11-02T14:48:23.113Z,59.31
2022-11-02T14:49:23.112Z,56.38
2022-11-02T14:50:23.073Z,54.86
2022-11-02T14:51:23.065Z,56.38
2022-11-02T14:52:23.056Z,57.69
2022-11-02T14:53:23.063Z,55.07
2022-11-02T14:54:23.034Z,56.58
2022-11-02T14:55:23.034Z,59.34
2022-11-02T14:56:23.024Z,61.33
2022-11-02T14:57:23.000Z,56.40
2022-11-02T14:58:22.999Z,58.43
2022-11-02T14:59:23.007Z,55.40
2022-11-02T15:00:23.016Z,60.25
2022-11-02T15:01:22.994Z,55.80
2022-11-02T15:02:22.944Z,56.51
2022-11-02T15:03:22.942Z,55.90
2022-11-02T15:04:22.957Z,57.62
2022-11-02T15:05:22.952Z,56.53
2022-11-02T15:06:22.915Z,57.34
2022-11-02T15:07:22.922Z,57.14
2022-11-02T15:08:22.889Z,57.44
2022-11-02T15:09:22.883Z,58.56
2022-11-02T15:10:22.873Z,59.47
2022-11-02T15:11:22.852Z,60.07
2022-11-02T15:12:22.871Z,58.76
2022-11-02T15:13:22.836Z,58.78
2022-11-02T15:14:22.818Z,59.39
2022-11-02T15:15:22.816Z,58.99
2022-11-02T15:16:22.813Z,57.87
2022-11-02T15:17:22.805Z,55.95
2022-11-02T15:18:22.775Z,60.81
2022-11-02T15:19:22.778Z,59.59
2022-11-02T15:20:22.755Z,56.86
2022-11-02T15:21:22.746Z,59.83
2022-11-02T15:22:22.753Z,56.89
2022-11-02T15:23:30.667Z,57.40
2022-11-02T15:24:22.719Z,57.40
2022-11-02T15:25:22.703Z,58.51
2022-11-02T15:26:22.688Z,58.31
2022-11-02T15:27:22.686Z,57.50
2022-11-02T15:28:22.709Z,55.57
2022-11-02T15:29:22.663Z,58.34
2022-11-02T15:30:28.056Z,59.55
2022-11-02T15:31:26.151Z,59.95
2022-11-02T15:32:23.168Z,59.55
2022-11-02T15:33:22.616Z,59.85
2022-11-02T15:34:22.664Z,58.74
2022-11-02T15:35:22.738Z,62.08
2022-11-02T15:36:22.577Z,60.16
2022-11-02T15:37:22.574Z,59.85
2022-11-02T15:38:29.630Z,61.91
2022-11-02T15:39:22.574Z,57.75
2022-11-02T15:40:22.565Z,57.86
2022-11-02T15:41:22.539Z,61.40
2022-11-02T15:42:22.546Z,59.68
2022-11-02T15:43:22.514Z,58.97
2022-11-02T15:44:22.520Z,61.60
2022-11-02T15:46:22.484Z,59.38
2022-11-02T15:47:22.472Z,58.56
2022-11-02T15:48:22.482Z,57.58
2022-11-02T15:49:22.444Z,57.58
2022-11-02T15:50:22.440Z,62.65
2022-11-02T15:51:22.453Z,62.85
2022-11-02T15:52:22.423Z,62.24
2022-11-02T15:53:24.022Z,61.53
2022-11-02T15:54:22.447Z,61.94
2022-11-02T15:55:22.411Z,61.23
2022-11-02T15:56:22.429Z,61.66
2022-11-02T15:57:22.388Z,60.55
2022-11-02T15:58:22.361Z,63.39
2022-11-02T15:59:22.337Z,61.25
2022-11-02T16:00:22.462Z,64.81
2022-11-02T16:01:22.520Z,61.46
2022-11-02T16:02:22.379Z,63.79
2022-11-02T16:03:22.319Z,62.68
2022-11-02T16:04:22.294Z,64.64
2022-11-02T16:05:22.287Z,62.10
2022-11-02T16:06:22.269Z,63.62
2022-11-02T16:07:23.985Z,62.71
2022-11-02T16:08:22.629Z,61.69
2022-11-02T16:09:22.230Z,60.78
2022-11-02T16:10:22.220Z,60.37
2022-11-02T16:11:22.255Z,60.68
2022-11-02T16:12:22.215Z,59.56
2022-11-02T16:13:22.194Z,64.33
2022-11-02T16:14:22.190Z,60.10
2022-11-02T16:15:22.279Z,64.56
2022-11-02T16:16:22.156Z,60.10
2022-11-02T16:17:22.166Z,61.21
2022-11-02T16:18:22.146Z,63.85
2022-11-02T16:19:22.151Z,61.32
2022-11-02T16:20:22.122Z,63.75
2022-11-02T16:21:22.112Z,63.04
2022-11-02T16:22:22.130Z,60.71
2022-11-02T16:23:22.076Z,64.26
2022-11-02T16:24:22.096Z,60.60
2022-11-02T16:25:22.139Z,61.75
2022-11-02T16:26:22.099Z,67.00
2022-11-02T16:27:22.104Z,63.48
2022-11-02T16:28:22.115Z,61.95
2022-11-02T16:29:22.081Z,63.48
2022-11-02T16:30:22.105Z,62.46
2022-11-02T16:31:22.054Z,60.83
2022-11-02T16:32:22.158Z,60.74
2022-11-02T16:33:22.021Z,67.64
2022-11-02T16:34:22.052Z,65.41
2022-11-02T16:35:22.084Z,64.52
2022-11-02T16:36:22.031Z,62.79
2022-11-02T16:37:21.980Z,61.47
2022-11-02T16:38:21.988Z,63.81
2022-11-02T16:39:21.977Z,62.49
2022-11-02T16:40:21.962Z,64.01
2022-11-02T16:41:21.948Z,63.40
2022-11-02T16:42:21.963Z,64.22
2022-11-02T16:43:21.920Z,66.66
2022-11-02T16:44:21.914Z,66.05
2022-11-02T16:45:22.017Z,66.66
2022-11-02T16:46:21.892Z,65.33
2022-11-02T16:47:21.900Z,67.10
2022-11-02T16:48:21.870Z,64.15
2022-11-02T16:49:21.874Z,65.47
2022-11-02T16:50:21.851Z,61.71
2022-11-02T16:51:21.835Z,66.58
2022-11-02T16:52:21.847Z,64.15